Time;durP1;ratioP1;P1;durP2;ratioP2;P2;SDS_P1;SDS_P2;PMS_P1;PMS_P2;Temp;Humidity;BMP_temperature;BMP_pressure;BME280_temperature;BME280_humidity;BME280_pressure;Samples;Min_cycle;Max_cycle;Signal;HPM_P1;HPM_P2
2022/09/10 00:00:05;0.00;0.00;0.62;0.00;0.00;0.62;1.50;0.80;;;25.60;37.20;;;;;;2231828;62;20800;-63
2022/09/10 00:02:54;0.00;0.00;0.62;0.00;0.00;0.62;2.33;1.10;;;25.60;37.20;;;;;;2234977;62;20391;-64
2022/09/10 00:05:40;0.00;0.00;0.62;0.00;0.00;0.62;1.90;0.97;;;25.50;37.10;;;;;;2237763;62;20593;-65
2022/09/10 00:08:26;0.00;0.00;0.62;0.00;0.00;0.62;4.33;0.90;;;25.40;37.10;;;;;;2237596;62;20653;-64
2022/09/10 00:11:11;0.00;0.00;0.62;0.00;0.00;0.62;3.03;1.27;;;25.40;37.10;;;;;;2270973;58;20396;-63
2022/09/10 00:14:12;0.00;0.00;0.62;0.00;0.00;0.62;4.23;1.20;;;25.40;37.20;;;;;;1676080;74;20470;-62
2022/09/10 00:16:57;0.00;0.00;0.62;0.00;0.00;0.62;1.73;1.00;;;25.30;37.20;;;;;;2268648;61;20348;-62
2022/09/10 00:19:42;0.00;0.00;0.62;0.00;0.00;0.62;2.43;0.97;;;25.20;37.30;;;;;;2268490;61;20364;-64
2022/09/10 00:22:27;0.00;0.00;0.62;0.00;0.00;0.62;1.93;1.10;;;25.20;38.00;;;;;;2266229;61;20437;-63
2022/09/10 00:25:12;0.00;0.00;0.62;0.00;0.00;0.62;1.60;0.80;;;25.20;37.40;;;;;;2264599;61;20376;-65
2022/09/10 00:27:58;0.00;0.00;0.62;0.00;0.00;0.62;2.80;1.00;;;25.10;37.50;;;;;;2264976;61;20646;-62
2022/09/10 00:30:47;0.00;0.00;0.62;0.00;0.00;0.62;1.80;1.00;;;25.10;37.60;;;;;;2264121;61;20366;-65
2022/09/10 00:33:32;0.00;0.00;0.62;0.00;0.00;0.62;2.23;0.93;;;25.00;37.50;;;;;;2264063;61;20397;-63
2022/09/10 00:36:20;0.00;0.00;0.62;0.00;0.00;0.62;2.33;0.90;;;25.00;37.60;;;;;;2264400;61;20361;-62
2022/09/10 00:39:08;0.00;0.00;0.62;0.00;0.00;0.62;2.50;0.87;;;25.00;37.70;;;;;;2264194;61;20591;-63
2022/09/10 00:41:54;0.00;0.00;0.62;0.00;0.00;0.62;4.30;1.03;;;24.90;37.70;;;;;;2264522;61;20416;-61
2022/09/10 00:45:08;0.00;0.00;0.62;0.00;0.00;0.62;2.10;1.10;;;24.90;37.80;;;;;;2264333;61;20435;-67
2022/09/10 00:47:58;0.00;0.00;0.62;0.00;0.00;0.62;1.70;1.00;;;24.90;37.90;;;;;;2255508;61;20403;-64
2022/09/10 00:50:47;0.00;0.00;0.62;0.00;0.00;0.62;1.90;1.07;;;24.80;37.90;;;;;;2264099;61;20373;-64
2022/09/10 00:53:32;0.00;0.00;0.62;0.00;0.00;0.62;1.30;0.80;;;24.70;37.90;;;;;;2264661;61;20388;-63
2022/09/10 00:56:17;0.00;0.00;0.62;0.00;0.00;0.62;2.23;0.93;;;24.70;37.90;;;;;;2264529;61;20364;-65
2022/09/10 00:59:03;0.00;0.00;0.62;0.00;0.00;0.62;1.60;0.83;;;24.70;38.60;;;;;;2264038;61;20400;-64
2022/09/10 01:01:48;0.00;0.00;0.62;0.00;0.00;0.62;2.03;0.97;;;24.70;38.00;;;;;;2264028;61;20443;-64
2022/09/10 01:04:35;0.00;0.00;0.62;0.00;0.00;0.62;2.73;1.00;;;24.70;38.00;;;;;;2496254;53;20389;-64
2022/09/10 01:07:20;0.00;0.00;0.62;0.00;0.00;0.62;2.37;0.87;;;24.70;38.20;;;;;;2260392;61;20370;-63
2022/09/10 01:10:11;0.00;0.00;0.62;0.00;0.00;0.62;2.23;1.10;;;24.70;38.20;;;;;;2262079;61;20399;-64
2022/09/10 01:13:24;0.00;0.00;0.62;0.00;0.00;0.62;1.77;0.90;;;24.60;38.10;;;;;;2265351;61;20412;-64
2022/09/10 01:16:19;0.00;0.00;0.62;0.00;0.00;0.62;2.07;0.90;;;24.60;38.20;;;;;;2264673;61;20628;-65
2022/09/10 01:19:25;0.00;0.00;0.62;0.00;0.00;0.62;1.50;0.83;;;24.60;38.20;;;;;;2264338;61;20357;-64
2022/09/10 01:22:21;0.00;0.00;0.62;0.00;0.00;0.62;2.20;1.10;;;24.60;38.30;;;;;;2265788;61;20392;-64
2022/09/10 01:25:21;0.00;0.00;0.62;0.00;0.00;0.62;2.37;0.90;;;24.50;38.20;;;;;;2261909;61;20365;-66
2022/09/10 01:28:14;0.00;0.00;0.62;0.00;0.00;0.62;2.10;0.97;;;24.60;38.20;;;;;;2261241;61;20423;-65
2022/09/10 01:31:09;0.00;0.00;0.62;0.00;0.00;0.62;2.17;1.30;;;24.50;38.20;;;;;;2310977;58;20685;-65
2022/09/10 01:34:01;0.00;0.00;0.62;0.00;0.00;0.62;3.37;1.00;;;24.50;38.20;;;;;;2261698;61;20401;-65
2022/09/10 01:36:50;0.00;0.00;0.62;0.00;0.00;0.62;3.03;1.20;;;24.50;38.30;;;;;;2261140;61;20358;-63
2022/09/10 01:39:37;0.00;0.00;0.62;0.00;0.00;0.62;2.63;1.07;;;24.40;38.20;;;;;;2260669;61;20536;-64
2022/09/10 01:42:24;0.00;0.00;0.62;0.00;0.00;0.62;1.80;1.10;;;24.40;38.40;;;;;;2261912;61;20370;-65
2022/09/10 01:45:14;0.00;0.00;0.62;0.00;0.00;0.62;2.30;1.37;;;24.30;38.40;;;;;;2261449;61;20382;-65
2022/09/10 01:48:53;0.00;0.00;0.62;0.00;0.00;0.62;3.90;1.40;;;24.30;38.60;;;;;;2261391;61;20726;-65
2022/09/10 01:52:00;0.00;0.00;0.62;0.00;0.00;0.62;2.20;1.10;;;24.20;38.70;;;;;;2261197;61;20633;-65
2022/09/10 01:54:59;0.00;0.00;0.62;0.00;0.00;0.62;2.10;1.00;;;24.20;38.90;;;;;;2260796;61;20365;-64
2022/09/10 01:57:55;0.00;0.00;0.62;0.00;0.00;0.62;2.53;1.10;;;24.10;39.10;;;;;;2261143;61;20641;-65
2022/09/10 02:00:51;0.00;0.00;0.62;0.00;0.00;0.62;2.03;1.10;;;24.10;39.10;;;;;;2260713;61;20404;-64
2022/09/10 02:03:38;0.00;0.00;0.62;0.00;0.00;0.62;1.73;0.97;;;24.10;39.10;;;;;;2261234;61;20369;-65
2022/09/10 02:06:28;0.00;0.00;0.62;0.00;0.00;0.62;1.83;1.20;;;24.10;39.10;;;;;;2261085;61;20369;-66
2022/09/10 02:09:15;0.00;0.00;0.62;0.00;0.00;0.62;2.50;1.63;;;24.10;39.10;;;;;;2260524;61;20417;-61
2022/09/10 02:12:01;0.00;0.00;0.62;0.00;0.00;0.62;2.73;1.30;;;24.10;39.10;;;;;;2451470;53;20395;-62
2022/09/10 02:15:06;0.00;0.00;0.62;0.00;0.00;0.62;3.93;1.43;;;24.10;39.10;;;;;;2262573;61;20405;-66
2022/09/10 02:18:07;0.00;0.00;0.62;0.00;0.00;0.62;2.53;1.60;;;24.10;39.10;;;;;;2257677;61;20401;-64
2022/09/10 02:20:55;0.00;0.00;0.62;0.00;0.00;0.62;3.07;1.30;;;24.10;39.10;;;;;;2260451;61;20389;-64
2022/09/10 02:23:44;0.00;0.00;0.62;0.00;0.00;0.62;2.27;1.10;;;24.10;39.10;;;;;;2261415;61;20413;-65
2022/09/10 02:26:32;0.00;0.00;0.62;0.00;0.00;0.62;1.80;1.20;;;24.10;39.10;;;;;;2261920;61;20354;-62
2022/09/10 02:29:18;0.00;0.00;0.62;0.00;0.00;0.62;1.80;1.00;;;24.20;39.10;;;;;;2262329;61;20476;-66
2022/09/10 02:32:03;0.00;0.00;0.62;0.00;0.00;0.62;1.73;1.10;;;24.20;39.10;;;;;;2265116;61;20377;-62
2022/09/10 02:34:49;0.00;0.00;0.62;0.00;0.00;0.62;2.57;1.20;;;24.20;39.10;;;;;;2264811;61;20364;-63
2022/09/10 02:37:34;0.00;0.00;0.62;0.00;0.00;0.62;3.40;1.53;;;24.20;39.10;;;;;;2265498;61;20373;-63
2022/09/10 02:40:19;0.00;0.00;0.62;0.00;0.00;0.62;3.27;1.53;;;24.20;39.10;;;;;;2261930;61;20756;-63
2022/09/10 02:43:05;0.00;0.00;0.62;0.00;0.00;0.62;3.10;1.40;;;24.10;39.10;;;;;;2260912;61;20785;-65
2022/09/10 02:45:50;0.00;0.00;0.62;0.00;0.00;0.62;2.63;1.10;;;24.10;39.10;;;;;;2261395;61;20366;-65
2022/09/10 02:48:34;0.00;0.00;0.62;0.00;0.00;0.62;1.30;0.90;;;24.10;39.10;;;;;;2261368;61;20354;-64
2022/09/10 02:51:21;0.00;0.00;0.62;0.00;0.00;0.62;2.53;1.07;;;24.10;39.10;;;;;;2502181;53;20364;-62
2022/09/10 02:54:06;0.00;0.00;0.62;0.00;0.00;0.62;1.70;0.83;;;24.10;39.10;;;;;;2264616;61;20775;-64
2022/09/10 02:56:50;0.00;0.00;0.62;0.00;0.00;0.62;2.13;1.07;;;24.10;39.10;;;;;;2265316;61;20354;-61
2022/09/10 02:59:37;0.00;0.00;0.62;0.00;0.00;0.62;6.27;1.03;;;24.10;39.10;;;;;;2262870;61;20765;-63
2022/09/10 03:02:22;0.00;0.00;0.62;0.00;0.00;0.62;2.27;1.10;;;24.10;39.10;;;;;;2261044;61;20381;-65
2022/09/10 03:05:08;0.00;0.00;0.62;0.00;0.00;0.62;2.67;1.30;;;24.10;39.10;;;;;;2260697;61;20504;-62
2022/09/10 03:07:54;0.00;0.00;0.62;0.00;0.00;0.62;2.10;1.00;;;24.00;39.00;;;;;;2266531;61;20598;-63
2022/09/10 03:10:39;0.00;0.00;0.62;0.00;0.00;0.62;2.80;1.27;;;24.00;39.00;;;;;;2260862;61;20373;-62
2022/09/10 03:13:26;0.00;0.00;0.62;0.00;0.00;0.62;5.10;1.30;;;24.00;39.00;;;;;;2260884;61;20390;-63
2022/09/10 03:16:12;0.00;0.00;0.62;0.00;0.00;0.62;2.70;0.90;;;23.90;39.00;;;;;;2260729;61;20354;-65
2022/09/10 03:18:57;0.00;0.00;0.62;0.00;0.00;0.62;1.90;1.17;;;23.90;39.10;;;;;;2260815;61;20436;-63
2022/09/10 03:21:41;0.00;0.00;0.62;0.00;0.00;0.62;1.70;1.00;;;23.90;39.20;;;;;;2261256;61;20674;-62
2022/09/10 03:24:29;0.00;0.00;0.62;0.00;0.00;0.62;1.50;0.90;;;23.90;39.30;;;;;;2261011;61;20355;-65
2022/09/10 03:27:15;0.00;0.00;0.62;0.00;0.00;0.62;2.13;1.10;;;23.80;39.20;;;;;;2260756;61;20358;-63
2022/09/10 03:30:01;0.00;0.00;0.62;0.00;0.00;0.62;2.37;1.00;;;23.80;39.30;;;;;;2260657;61;20377;-64
2022/09/10 03:32:49;0.00;0.00;0.62;0.00;0.00;0.62;1.87;1.17;;;23.80;39.40;;;;;;2261037;61;20448;-60
2022/09/10 03:35:33;0.00;0.00;0.62;0.00;0.00;0.62;2.03;1.40;;;23.70;39.50;;;;;;2260717;61;20370;-64
2022/09/10 03:38:19;0.00;0.00;0.62;0.00;0.00;0.62;3.13;1.87;;;23.80;39.60;;;;;;2261145;61;20393;-64
2022/09/10 03:41:06;0.00;0.00;0.62;0.00;0.00;0.62;4.43;1.73;;;23.70;39.60;;;;;;2495385;53;20362;-63
2022/09/10 03:43:53;0.00;0.00;0.62;0.00;0.00;0.62;3.20;1.77;;;23.70;39.90;;;;;;2256865;61;20350;-65
2022/09/10 03:46:37;0.00;0.00;0.62;0.00;0.00;0.62;2.20;1.30;;;23.70;40.00;;;;;;2256818;61;20366;-62
2022/09/10 03:49:23;0.00;0.00;0.62;0.00;0.00;0.62;2.57;1.53;;;23.70;40.20;;;;;;2264873;61;20806;-64
2022/09/10 03:52:11;0.00;0.00;0.62;0.00;0.00;0.62;3.50;1.50;;;23.60;40.30;;;;;;2264941;61;20779;-64
2022/09/10 03:54:57;0.00;0.00;0.62;0.00;0.00;0.62;3.80;1.80;;;23.60;40.50;;;;;;2264931;61;20357;-65
2022/09/10 03:57:44;0.00;0.00;0.62;0.00;0.00;0.62;2.70;1.67;;;23.60;40.60;;;;;;2264820;61;20361;-65
2022/09/10 04:00:29;0.00;0.00;0.62;0.00;0.00;0.62;2.13;1.50;;;23.50;40.60;;;;;;2261187;61;20390;-65
2022/09/10 04:03:13;0.00;0.00;0.62;0.00;0.00;0.62;2.00;1.40;;;23.50;40.80;;;;;;2261260;61;20404;-63
2022/09/10 04:05:59;0.00;0.00;0.62;0.00;0.00;0.62;2.73;1.47;;;23.50;40.90;;;;;;2260930;61;20753;-63
2022/09/10 04:08:47;0.00;0.00;0.62;0.00;0.00;0.62;2.53;1.60;;;23.40;40.90;;;;;;2260801;61;20367;-63
2022/09/10 04:11:33;0.00;0.00;0.62;0.00;0.00;0.62;6.00;2.27;;;23.40;41.10;;;;;;2282777;61;20413;-65
2022/09/10 04:14:20;0.00;0.00;0.62;0.00;0.00;0.62;1.97;1.43;;;23.40;41.10;;;;;;2260719;61;20389;-62
2022/09/10 04:17:05;0.00;0.00;0.62;0.00;0.00;0.62;3.47;1.83;;;23.40;41.20;;;;;;2260871;61;20358;-63
2022/09/10 04:19:51;0.00;0.00;0.62;0.00;0.00;0.62;2.97;1.70;;;23.30;41.20;;;;;;2262851;61;20360;-65
2022/09/10 04:22:35;0.00;0.00;0.62;0.00;0.00;0.62;3.10;1.60;;;23.30;41.30;;;;;;2264417;61;20407;-66
2022/09/10 04:25:21;0.00;0.00;0.62;0.00;0.00;0.62;3.30;1.67;;;23.30;41.30;;;;;;2264902;61;20392;-63
2022/09/10 04:28:06;0.00;0.00;0.62;0.00;0.00;0.62;3.00;1.50;;;23.30;41.40;;;;;;2265370;61;20357;-62
2022/09/10 04:30:53;0.00;0.00;0.62;0.00;0.00;0.62;1.80;1.50;;;23.30;41.50;;;;;;2264568;61;20384;-64
2022/09/10 04:33:40;0.00;0.00;0.62;0.00;0.00;0.62;3.00;1.80;;;23.30;41.50;;;;;;2264588;61;20776;-66
2022/09/10 04:36:25;0.00;0.00;0.62;0.00;0.00;0.62;2.20;1.43;;;23.20;41.40;;;;;;2264765;61;20393;-64
2022/09/10 04:39:13;0.00;0.00;0.62;0.00;0.00;0.62;3.33;1.57;;;23.20;41.50;;;;;;2263400;61;20725;-65
2022/09/10 04:41:58;0.00;0.00;0.62;0.00;0.00;0.62;2.83;1.70;;;23.20;41.60;;;;;;2261061;61;20385;-65
2022/09/10 04:44:42;0.00;0.00;0.62;0.00;0.00;0.62;2.60;1.67;;;23.20;41.70;;;;;;2260917;61;20389;-65
2022/09/10 04:47:28;0.00;0.00;0.62;0.00;0.00;0.62;1.93;1.40;;;23.20;41.70;;;;;;2261147;61;20637;-64
2022/09/10 04:50:14;0.00;0.00;0.62;0.00;0.00;0.62;4.10;1.80;;;23.10;41.70;;;;;;2261266;61;20370;-63
2022/09/10 04:53:20;0.00;0.00;0.62;0.00;0.00;0.62;3.27;1.87;;;23.20;41.90;;;;;;2261111;61;20386;-64
2022/09/10 04:56:06;0.00;0.00;0.62;0.00;0.00;0.62;2.20;1.60;;;23.10;41.80;;;;;;2260615;61;20438;-65
2022/09/10 04:58:54;0.00;0.00;0.62;0.00;0.00;0.62;2.07;1.53;;;23.10;41.90;;;;;;2261054;61;20376;-62
2022/09/10 05:01:39;0.00;0.00;0.62;0.00;0.00;0.62;2.20;1.50;;;23.10;41.90;;;;;;2265488;61;20376;-65
2022/09/10 05:04:25;0.00;0.00;0.62;0.00;0.00;0.62;2.27;1.57;;;23.10;42.00;;;;;;2261513;61;20370;-63
2022/09/10 05:07:11;0.00;0.00;0.62;0.00;0.00;0.62;4.37;2.33;;;23.00;42.00;;;;;;2260909;61;20366;-62
2022/09/10 05:09:56;0.00;0.00;0.62;0.00;0.00;0.62;1.90;1.70;;;23.00;42.10;;;;;;2261784;61;20600;-62
2022/09/10 05:12:41;0.00;0.00;0.62;0.00;0.00;0.62;1.83;1.47;;;23.00;42.10;;;;;;2261022;61;20598;-66
2022/09/10 05:15:26;0.00;0.00;0.62;0.00;0.00;0.62;1.97;1.60;;;22.90;42.10;;;;;;2261524;61;20409;-65
2022/09/10 05:18:11;0.00;0.00;0.62;0.00;0.00;0.62;2.20;1.70;;;23.00;42.30;;;;;;2261279;61;20473;-63
2022/09/10 05:20:58;0.00;0.00;0.62;0.00;0.00;0.62;3.23;2.07;;;22.90;42.20;;;;;;2261026;61;20409;-64
2022/09/10 05:23:42;0.00;0.00;0.62;0.00;0.00;0.62;2.00;1.47;;;22.90;42.40;;;;;;2261532;61;20729;-64
2022/09/10 05:26:28;0.00;0.00;0.62;0.00;0.00;0.62;3.00;1.80;;;22.90;42.40;;;;;;2261140;61;20386;-65
2022/09/10 05:29:15;0.00;0.00;0.62;0.00;0.00;0.62;2.63;1.90;;;22.80;42.30;;;;;;2260886;61;20714;-64
2022/09/10 05:32:00;0.00;0.00;0.62;0.00;0.00;0.62;2.47;1.73;;;22.90;42.50;;;;;;2258745;61;20385;-65
2022/09/10 05:34:47;0.00;0.00;0.62;0.00;0.00;0.62;3.00;1.50;;;22.80;42.40;;;;;;2261302;61;20362;-64
2022/09/10 05:37:34;0.00;0.00;0.62;0.00;0.00;0.62;2.30;1.60;;;22.80;42.30;;;;;;2261387;61;20351;-62
2022/09/10 05:40:20;0.00;0.00;0.62;0.00;0.00;0.62;3.63;2.03;;;22.80;42.40;;;;;;2263919;61;20369;-65
2022/09/10 05:43:07;0.00;0.00;0.62;0.00;0.00;0.62;2.47;1.50;;;22.80;42.40;;;;;;2265264;61;20415;-63
2022/09/10 05:45:52;0.00;0.00;0.62;0.00;0.00;0.62;3.27;1.67;;;22.80;42.40;;;;;;2265459;61;20741;-63
2022/09/10 05:48:39;0.00;0.00;0.62;0.00;0.00;0.62;2.40;1.80;;;22.80;42.40;;;;;;2264817;61;20364;-64
2022/09/10 05:51:28;0.00;0.00;0.62;0.00;0.00;0.62;3.83;1.50;;;22.80;42.40;;;;;;2265006;61;20674;-63
2022/09/10 05:54:18;0.00;0.00;0.62;0.00;0.00;0.62;4.00;1.50;;;22.90;42.60;;;;;;2265462;61;20432;-62
2022/09/10 05:57:04;0.00;0.00;0.62;0.00;0.00;0.62;2.47;1.60;;;22.80;42.50;;;;;;2265162;61;20357;-62
2022/09/10 05:59:49;0.00;0.00;0.62;0.00;0.00;0.62;4.90;1.77;;;22.90;42.60;;;;;;2265533;61;20377;-61
2022/09/10 06:02:34;0.00;0.00;0.62;0.00;0.00;0.62;3.73;1.90;;;22.90;42.60;;;;;;2264016;61;20707;-63
2022/09/10 06:05:22;0.00;0.00;0.62;0.00;0.00;0.62;3.63;1.93;;;22.90;42.60;;;;;;2261264;61;20771;-65
2022/09/10 06:08:07;0.00;0.00;0.62;0.00;0.00;0.62;4.83;1.80;;;22.90;42.60;;;;;;2261202;61;20373;-64
2022/09/10 06:11:01;0.00;0.00;0.62;0.00;0.00;0.62;3.93;1.90;;;22.90;42.60;;;;;;2261313;61;20615;-65
2022/09/10 06:13:52;0.00;0.00;0.62;0.00;0.00;0.62;6.43;1.90;;;22.90;42.70;;;;;;2261226;61;20386;-64
2022/09/10 06:16:38;0.00;0.00;0.62;0.00;0.00;0.62;4.10;1.57;;;22.90;42.70;;;;;;2261081;61;20354;-63
2022/09/10 06:19:24;0.00;0.00;0.62;0.00;0.00;0.62;4.40;2.60;;;22.90;42.80;;;;;;2261042;61;20354;-61
2022/09/10 06:22:09;0.00;0.00;0.62;0.00;0.00;0.62;2.77;1.63;;;22.90;42.80;;;;;;2261172;61;20382;-62
2022/09/10 06:24:57;0.00;0.00;0.62;0.00;0.00;0.62;2.50;1.43;;;22.90;42.80;;;;;;2261069;61;20362;-62
2022/09/10 06:27:44;0.00;0.00;0.62;0.00;0.00;0.62;2.97;1.90;;;22.90;42.80;;;;;;2261062;61;20567;-66
2022/09/10 06:30:28;0.00;0.00;0.62;0.00;0.00;0.62;2.40;1.90;;;22.90;42.80;;;;;;2260833;61;20370;-62
2022/09/10 06:33:15;0.00;0.00;0.62;0.00;0.00;0.62;2.00;1.60;;;22.90;42.80;;;;;;2260349;61;20428;-62
2022/09/10 06:36:02;0.00;0.00;0.62;0.00;0.00;0.62;2.70;1.50;;;22.90;42.80;;;;;;2261315;61;20485;-63
2022/09/10 06:38:48;0.00;0.00;0.62;0.00;0.00;0.62;2.30;1.90;;;22.90;42.80;;;;;;2261053;61;20357;-63
2022/09/10 06:41:34;0.00;0.00;0.62;0.00;0.00;0.62;2.67;1.80;;;22.90;42.80;;;;;;2261313;61;20377;-63
2022/09/10 06:44:26;0.00;0.00;0.62;0.00;0.00;0.62;3.10;1.40;;;22.90;42.80;;;;;;2261536;61;20430;-62
2022/09/10 06:47:19;0.00;0.00;0.62;0.00;0.00;0.62;3.53;1.67;;;22.90;42.80;;;;;;2261423;61;20413;-63
2022/09/10 06:50:05;0.00;0.00;0.62;0.00;0.00;0.62;5.50;2.30;;;22.90;42.90;;;;;;2261067;61;20362;-61
2022/09/10 06:52:53;0.00;0.00;0.62;0.00;0.00;0.62;4.23;1.67;;;22.90;43.00;;;;;;2261445;61;20448;-62
2022/09/10 06:55:39;0.00;0.00;0.62;0.00;0.00;0.62;4.63;1.90;;;22.90;43.00;;;;;;2261427;61;20421;-62
2022/09/10 06:58:24;0.00;0.00;0.62;0.00;0.00;0.62;3.00;1.50;;;22.90;43.00;;;;;;2266574;61;20354;-61
2022/09/10 07:01:14;0.00;0.00;0.62;0.00;0.00;0.62;3.73;1.67;;;22.90;43.00;;;;;;2261036;61;20397;-64
2022/09/10 07:04:02;0.00;0.00;0.62;0.00;0.00;0.62;1.77;1.50;;;23.00;43.00;;;;;;2261151;61;20385;-62
2022/09/10 07:06:48;0.00;0.00;0.62;0.00;0.00;0.62;3.10;1.47;;;23.00;43.00;;;;;;2261473;61;20404;-64
2022/09/10 07:09:34;0.00;0.00;0.62;0.00;0.00;0.62;2.13;1.50;;;23.00;42.90;;;;;;2260844;61;20721;-62
2022/09/10 07:12:20;0.00;0.00;0.62;0.00;0.00;0.62;3.20;1.63;;;23.00;43.50;;;;;;2260915;61;20397;-62
2022/09/10 07:15:07;0.00;0.00;0.62;0.00;0.00;0.62;2.43;1.30;;;23.10;42.80;;;;;;2261610;61;20428;-63
2022/09/10 07:17:53;0.00;0.00;0.62;0.00;0.00;0.62;2.20;1.50;;;23.10;43.40;;;;;;2261315;61;20372;-64
2022/09/10 07:20:38;0.00;0.00;0.62;0.00;0.00;0.62;2.53;1.20;;;23.10;42.70;;;;;;2260891;61;20362;-61
2022/09/10 07:23:23;0.00;0.00;0.62;0.00;0.00;0.62;3.17;1.37;;;23.10;42.60;;;;;;2260795;61;20373;-64
2022/09/10 07:26:12;0.00;0.00;0.62;0.00;0.00;0.62;3.70;1.37;;;23.10;42.50;;;;;;2261078;61;20676;-64
2022/09/10 07:29:03;0.00;0.00;0.62;0.00;0.00;0.62;3.50;1.40;;;23.20;42.60;;;;;;2261413;61;20467;-64
2022/09/10 07:31:48;0.00;0.00;0.62;0.00;0.00;0.62;3.60;1.60;;;23.20;42.50;;;;;;2260965;61;20397;-64
2022/09/10 07:34:40;0.00;0.00;0.62;0.00;0.00;0.62;2.20;1.40;;;23.20;42.50;;;;;;2260690;61;20800;-64
2022/09/10 07:37:25;0.00;0.00;0.62;0.00;0.00;0.62;2.23;1.20;;;23.30;43.10;;;;;;2261430;61;20481;-63
2022/09/10 07:40:10;0.00;0.00;0.62;0.00;0.00;0.62;3.10;1.20;;;23.30;43.00;;;;;;2261040;61;20401;-63
2022/09/10 07:42:57;0.00;0.00;0.62;0.00;0.00;0.62;2.57;1.47;;;23.30;42.20;;;;;;2258545;61;20405;-64
2022/09/10 07:45:42;0.00;0.00;0.62;0.00;0.00;0.62;1.93;1.30;;;23.30;42.20;;;;;;2260897;61;20420;-63
2022/09/10 07:48:28;0.00;0.00;0.62;0.00;0.00;0.62;3.90;1.33;;;23.30;42.10;;;;;;2260765;61;20455;-62
2022/09/10 07:51:18;0.00;0.00;0.62;0.00;0.00;0.62;2.37;1.37;;;23.40;42.80;;;;;;2261951;61;20742;-62
2022/09/10 07:54:04;0.00;0.00;0.62;0.00;0.00;0.62;3.67;1.40;;;23.40;42.10;;;;;;2260805;61;20758;-60
2022/09/10 07:56:53;0.00;0.00;0.62;0.00;0.00;0.62;2.53;1.20;;;23.40;42.10;;;;;;2260838;61;20481;-63
2022/09/10 07:59:39;0.00;0.00;0.62;0.00;0.00;0.62;2.13;1.17;;;23.40;42.00;;;;;;2261124;61;20354;-61
2022/09/10 08:02:25;0.00;0.00;0.62;0.00;0.00;0.62;3.07;1.30;;;23.50;42.10;;;;;;2261001;61;20801;-61
2022/09/10 08:05:16;0.00;0.00;0.62;0.00;0.00;0.62;1.70;1.10;;;23.50;42.00;;;;;;2266908;61;20354;-63
2022/09/10 08:08:03;0.00;0.00;0.62;0.00;0.00;0.62;2.17;1.00;;;23.50;41.90;;;;;;2260856;61;20377;-62
2022/09/10 08:10:48;0.00;0.00;0.62;0.00;0.00;0.62;2.73;1.40;;;23.50;41.90;;;;;;2260579;61;20401;-60
2022/09/10 08:13:35;0.00;0.00;0.62;0.00;0.00;0.62;1.90;1.10;;;23.60;41.90;;;;;;2261248;61;20436;-63
2022/09/10 08:16:22;0.00;0.00;0.62;0.00;0.00;0.62;2.50;1.57;;;23.60;41.80;;;;;;2260777;61;20357;-62
2022/09/10 08:19:08;0.00;0.00;0.62;0.00;0.00;0.62;2.83;1.43;;;23.60;41.70;;;;;;2260774;61;20765;-63
2022/09/10 08:21:55;0.00;0.00;0.62;0.00;0.00;0.62;3.60;1.57;;;23.60;41.60;;;;;;2261067;61;20377;-62
2022/09/10 08:24:48;0.00;0.00;0.62;0.00;0.00;0.62;2.47;1.40;;;23.60;41.60;;;;;;2260982;61;20390;-64
2022/09/10 08:27:34;0.00;0.00;0.62;0.00;0.00;0.62;2.00;1.20;;;23.70;41.50;;;;;;2261417;61;20436;-62
2022/09/10 08:30:21;0.00;0.00;0.62;0.00;0.00;0.62;2.67;1.27;;;23.70;41.50;;;;;;2260437;61;20362;-62
2022/09/10 08:33:05;0.00;0.00;0.62;0.00;0.00;0.62;3.10;1.60;;;23.70;41.50;;;;;;2260933;61;20429;-64
2022/09/10 08:35:55;0.00;0.00;0.62;0.00;0.00;0.62;3.80;1.30;;;23.70;41.40;;;;;;2262022;61;20435;-61
2022/09/10 08:38:43;0.00;0.00;0.62;0.00;0.00;0.62;2.13;1.10;;;23.70;41.40;;;;;;2261264;61;20448;-62
2022/09/10 08:41:45;0.00;0.00;0.62;0.00;0.00;0.62;1.57;1.10;;;23.80;41.40;;;;;;2261657;61;20473;-63
2022/09/10 08:44:48;0.00;0.00;0.62;0.00;0.00;0.62;2.40;1.30;;;23.80;41.30;;;;;;2261582;61;20353;-61
2022/09/10 08:47:48;0.00;0.00;0.62;0.00;0.00;0.62;1.90;1.20;;;23.80;41.30;;;;;;2261607;61;20350;-63
2022/09/10 08:50:39;0.00;0.00;0.62;0.00;0.00;0.62;1.80;1.10;;;23.80;41.20;;;;;;2261834;61;20358;-62
2022/09/10 08:53:42;0.00;0.00;0.62;0.00;0.00;0.62;2.63;1.30;;;23.80;41.20;;;;;;2261431;61;20390;-63
2022/09/10 08:56:27;0.00;0.00;0.62;0.00;0.00;0.62;1.77;1.00;;;23.80;41.20;;;;;;2261515;61;20385;-62
2022/09/10 08:59:24;0.00;0.00;0.62;0.00;0.00;0.62;4.07;1.63;;;23.80;41.10;;;;;;2261578;61;20366;-63
2022/09/10 09:02:19;0.00;0.00;0.62;0.00;0.00;0.62;1.73;1.10;;;23.90;41.10;;;;;;2261530;61;20504;-62
2022/09/10 09:05:13;0.00;0.00;0.62;0.00;0.00;0.62;1.97;1.10;;;23.90;41.20;;;;;;2262290;61;20409;-62
2022/09/10 09:07:58;0.00;0.00;0.62;0.00;0.00;0.62;1.50;0.90;;;23.90;41.10;;;;;;2261790;61;20714;-62
2022/09/10 09:10:49;0.00;0.00;0.62;0.00;0.00;0.62;2.20;1.20;;;23.90;41.00;;;;;;2261265;61;20373;-62
2022/09/10 09:13:59;0.00;0.00;0.62;0.00;0.00;0.62;1.90;1.30;;;23.90;40.90;;;;;;2261781;61;20513;-63
2022/09/10 09:17:15;0.00;0.00;0.62;0.00;0.00;0.62;1.50;1.00;;;24.00;40.90;;;;;;2261803;61;20369;-62
2022/09/10 09:20:14;0.00;0.00;0.62;0.00;0.00;0.62;3.23;1.13;;;24.00;40.80;;;;;;2261772;61;20577;-63
2022/09/10 09:23:13;0.00;0.00;0.62;0.00;0.00;0.62;2.63;1.30;;;24.00;40.80;;;;;;2261412;61;20416;-63
2022/09/10 09:26:03;0.00;0.00;0.62;0.00;0.00;0.62;2.20;1.20;;;24.00;40.70;;;;;;2261658;61;20393;-63
2022/09/10 09:28:55;0.00;0.00;0.62;0.00;0.00;0.62;2.47;1.33;;;24.00;40.70;;;;;;2261615;61;20362;-63
2022/09/10 09:31:45;0.00;0.00;0.62;0.00;0.00;0.62;2.27;1.10;;;24.10;40.70;;;;;;2261337;61;20631;-63
2022/09/10 09:34:38;0.00;0.00;0.62;0.00;0.00;0.62;2.97;1.40;;;24.10;40.60;;;;;;2262224;61;20392;-62
2022/09/10 09:37:28;0.00;0.00;0.62;0.00;0.00;0.62;1.60;1.07;;;24.10;40.60;;;;;;2261353;61;20358;-63
2022/09/10 09:40:27;0.00;0.00;0.62;0.00;0.00;0.62;1.80;1.10;;;24.10;41.30;;;;;;2261211;61;20386;-63
2022/09/10 09:43:22;0.00;0.00;0.62;0.00;0.00;0.62;2.03;1.40;;;24.10;40.50;;;;;;2261626;61;20373;-63
2022/09/10 09:46:14;0.00;0.00;0.62;0.00;0.00;0.62;2.13;1.10;;;24.10;40.50;;;;;;2261325;61;20366;-62
2022/09/10 09:49:01;0.00;0.00;0.62;0.00;0.00;0.62;3.20;1.20;;;24.20;40.50;;;;;;2261782;61;20588;-64
2022/09/10 09:51:50;0.00;0.00;0.62;0.00;0.00;0.62;2.37;1.30;;;24.20;40.40;;;;;;2261241;61;20385;-64
2022/09/10 09:54:38;0.00;0.00;0.62;0.00;0.00;0.62;2.23;1.63;;;24.20;40.40;;;;;;2261618;61;20394;-61
2022/09/10 09:57:22;0.00;0.00;0.62;0.00;0.00;0.62;2.53;1.30;;;24.20;40.30;;;;;;2262240;61;20361;-59
2022/09/10 10:00:34;0.00;0.00;0.62;0.00;0.00;0.62;2.23;1.30;;;24.20;40.20;;;;;;2261481;61;20394;-63
2022/09/10 10:03:24;0.00;0.00;0.62;0.00;0.00;0.62;2.00;1.30;;;24.20;40.10;;;;;;2261739;61;20405;-63
2022/09/10 10:06:11;0.00;0.00;0.62;0.00;0.00;0.62;3.10;1.30;;;24.20;40.00;;;;;;2261677;61;20350;-63
2022/09/10 10:09:04;0.00;0.00;0.62;0.00;0.00;0.62;1.77;1.17;;;24.30;40.10;;;;;;2261621;61;20432;-63
2022/09/10 10:11:52;0.00;0.00;0.62;0.00;0.00;0.62;1.57;1.07;;;24.30;40.70;;;;;;2261999;61;20597;-63
2022/09/10 10:14:40;0.00;0.00;0.62;0.00;0.00;0.62;1.50;1.00;;;24.30;40.00;;;;;;2261615;61;20461;-62
2022/09/10 10:17:33;0.00;0.00;0.62;0.00;0.00;0.62;2.57;1.43;;;24.30;40.00;;;;;;2261657;61;20362;-64
2022/09/10 10:20:18;0.00;0.00;0.62;0.00;0.00;0.62;2.73;1.00;;;24.30;39.90;;;;;;2261866;61;20688;-62
2022/09/10 10:23:27;0.00;0.00;0.62;0.00;0.00;0.62;1.60;1.00;;;24.30;39.70;;;;;;2261823;61;20382;-62
2022/09/10 10:26:27;0.00;0.00;0.62;0.00;0.00;0.62;2.03;1.00;;;24.40;39.70;;;;;;2262047;61;20385;-63
2022/09/10 10:29:18;0.00;0.00;0.62;0.00;0.00;0.62;1.87;1.10;;;24.40;39.50;;;;;;2261413;61;20358;-63
2022/09/10 10:32:15;0.00;0.00;0.62;0.00;0.00;0.62;2.23;1.00;;;24.40;39.40;;;;;;2261665;61;20405;-62
2022/09/10 10:35:22;0.00;0.00;0.62;0.00;0.00;0.62;1.60;1.00;;;24.50;39.60;;;;;;2262019;61;20354;-63
2022/09/10 10:38:29;0.00;0.00;0.62;0.00;0.00;0.62;2.00;1.07;;;24.50;39.60;;;;;;2262195;61;20598;-62
2022/09/10 10:41:48;0.00;0.00;0.62;0.00;0.00;0.62;1.80;1.03;;;24.50;39.50;;;;;;2262084;61;20401;-63
2022/09/10 10:44:55;0.00;0.00;0.62;0.00;0.00;0.62;1.93;1.17;;;24.50;39.40;;;;;;2261531;61;20820;-64
2022/09/10 10:47:47;0.00;0.00;0.62;0.00;0.00;0.62;1.90;1.03;;;24.50;39.40;;;;;;2261442;61;20354;-64
2022/09/10 10:50:46;0.00;0.00;0.62;0.00;0.00;0.62;3.10;1.00;;;24.50;39.40;;;;;;2261304;61;20382;-63
2022/09/10 10:53:55;0.00;0.00;0.62;0.00;0.00;0.62;1.67;1.00;;;24.60;39.50;;;;;;2261422;61;20469;-62
2022/09/10 10:56:49;0.00;0.00;0.62;0.00;0.00;0.62;1.90;1.20;;;24.60;39.50;;;;;;2261757;61;20393;-64
2022/09/10 10:59:52;0.00;0.00;0.62;0.00;0.00;0.62;3.13;1.20;;;24.60;39.50;;;;;;2261454;61;20745;-63
2022/09/10 11:02:43;0.00;0.00;0.62;0.00;0.00;0.62;1.93;1.00;;;24.60;39.50;;;;;;2261468;61;20394;-63
2022/09/10 11:05:32;0.00;0.00;0.62;0.00;0.00;0.62;1.90;1.13;;;24.70;40.30;;;;;;2261421;61;20404;-62
2022/09/10 11:08:25;0.00;0.00;0.62;0.00;0.00;0.62;1.53;0.83;;;24.70;39.50;;;;;;2261481;61;20381;-62